createdAt,value
2022-11-27T00:03:27.025Z,101635.50
2022-11-27T00:08:28.670Z,101631.91
2022-11-27T00:13:30.364Z,101640.06
2022-11-27T00:18:32.786Z,101627.78
2022-11-27T00:23:35.485Z,101615.25
2022-11-27T00:28:38.005Z,101604.03
2022-11-27T00:33:39.565Z,101609.22
2022-11-27T00:38:41.318Z,101612.44
2022-11-27T00:43:45.304Z,101620.06
2022-11-27T00:48:47.412Z,101613.78
2022-11-27T00:53:49.613Z,101616.47
2022-11-27T00:58:51.890Z,101612.28
2022-11-27T01:03:55.064Z,101611.34
2022-11-27T01:08:57.819Z,101605.47
2022-11-27T01:14:02.526Z,101599.41
2022-11-27T01:19:04.680Z,101595.41
2022-11-27T01:24:06.953Z,101586.63
2022-11-27T01:29:08.658Z,101577.22
2022-11-27T01:34:14.827Z,101568.84
2022-11-27T01:39:18.955Z,101568.31
2022-11-27T01:44:23.580Z,101563.97
2022-11-27T01:49:33.286Z,101551.88
2022-11-27T01:54:40.842Z,101538.53
2022-11-27T01:59:42.811Z,101545.09
2022-11-27T02:04:44.377Z,101523.22
2022-11-27T02:09:46.127Z,101517.22
2022-11-27T02:15:06.105Z,101524.34
2022-11-27T02:20:26.245Z,101519.84
2022-11-27T02:25:57.029Z,101513.00
2022-11-27T02:31:45.105Z,101510.81
2022-11-27T02:36:50.842Z,101510.50
2022-11-27T02:42:01.002Z,101509.19
2022-11-27T02:47:04.952Z,101512.16
2022-11-27T02:52:06.910Z,101516.38
2022-11-27T02:57:10.012Z,101509.78
2022-11-27T03:02:17.479Z,101525.38
2022-11-27T03:07:25.467Z,101519.78
2022-11-27T03:12:27.363Z,101522.53
2022-11-27T03:17:37.900Z,101526.13
2022-11-27T03:22:39.497Z,101532.41
2022-11-27T03:27:44.709Z,101526.88
2022-11-27T03:32:46.337Z,101520.69
2022-11-27T03:37:48.143Z,101523.44
2022-11-27T03:42:59.257Z,101523.25
2022-11-27T03:48:03.488Z,101514.31
2022-11-27T03:53:13.785Z,101506.13
2022-11-27T03:58:20.720Z,101512.53
2022-11-27T04:03:25.107Z,101498.06
2022-11-27T04:08:26.742Z,101496.63
2022-11-27T04:13:28.271Z,101496.81
2022-11-27T04:18:30.247Z,101500.50
2022-11-27T04:23:31.943Z,101500.09
2022-11-27T04:28:33.635Z,101500.66
2022-11-27T04:33:36.110Z,101506.63
2022-11-27T04:38:37.643Z,101501.84
2022-11-27T04:43:39.194Z,101511.91
2022-11-27T04:48:40.748Z,101506.31
2022-11-27T04:53:42.393Z,101507.44
2022-11-27T04:58:43.939Z,101499.50
2022-11-27T05:03:47.550Z,101499.75
2022-11-27T05:08:49.456Z,101501.03
2022-11-27T05:14:10.962Z,101485.44
2022-11-27T05:19:14.228Z,101502.72
2022-11-27T05:24:16.826Z,101502.06
2022-11-27T05:29:19.334Z,101509.94
2022-11-27T05:34:21.062Z,101518.31
2022-11-27T05:39:22.658Z,101517.47
2022-11-27T05:44:24.206Z,101512.47
2022-11-27T05:49:25.831Z,101511.53
2022-11-27T05:54:27.451Z,101519.44
2022-11-27T05:59:29.004Z,101516.75
2022-11-27T06:04:35.690Z,101511.13
2022-11-27T06:09:38.623Z,101509.38
2022-11-27T06:14:40.345Z,101501.72
2022-11-27T06:19:45.181Z,101499.66
2022-11-27T06:24:46.800Z,101500.56
2022-11-27T06:29:48.420Z,101493.47
2022-11-27T06:34:49.945Z,101501.53
2022-11-27T06:39:51.572Z,101498.78
2022-11-27T06:44:53.235Z,101489.66
2022-11-27T06:49:54.792Z,101488.06
2022-11-27T06:54:56.337Z,101482.94
2022-11-27T06:59:57.862Z,101469.06
2022-11-27T07:04:59.394Z,101470.34
2022-11-27T07:10:00.964Z,101476.66
2022-11-27T07:15:04.528Z,101473.50
2022-11-27T07:20:07.070Z,101478.41
2022-11-27T07:25:08.810Z,101483.22
2022-11-27T07:30:10.962Z,101485.53
2022-11-27T07:35:12.675Z,101491.44
2022-11-27T07:40:15.117Z,101485.28
2022-11-27T07:45:16.848Z,101491.19
2022-11-27T07:50:18.414Z,101474.31
2022-11-27T07:55:19.970Z,101457.63
2022-11-27T08:00:21.723Z,101444.34
2022-11-27T08:05:23.309Z,101439.38
2022-11-27T08:10:24.960Z,101447.53
2022-11-27T08:15:26.564Z,101441.28
2022-11-27T08:20:28.362Z,101424.38
2022-11-27T08:25:30.198Z,101422.56
2022-11-27T08:30:31.922Z,101415.66
2022-11-27T08:35:33.710Z,101422.03
2022-11-27T08:40:35.479Z,101421.75
2022-11-27T08:45:40.270Z,101430.41
2022-11-27T08:50:41.918Z,101422.34
2022-11-27T08:55:43.477Z,101421.28
2022-11-27T09:00:45.076Z,101417.53
2022-11-27T09:05:46.678Z,101429.97
2022-11-27T09:10:48.215Z,101427.91
2022-11-27T09:15:49.787Z,101418.34
2022-11-27T09:20:59.630Z,101408.31
2022-11-27T09:26:03.125Z,101398.66
2022-11-27T09:31:06.069Z,101396.75
2022-11-27T09:36:10.210Z,101383.41
2022-11-27T09:41:11.784Z,101379.59
2022-11-27T09:46:19.460Z,101363.91
2022-11-27T09:51:37.726Z,101356.81
2022-11-27T09:56:40.314Z,101344.53
2022-11-27T10:01:47.608Z,101321.31
2022-11-27T10:07:13.549Z,101318.16
2022-11-27T10:12:20.901Z,101319.59
2022-11-27T10:17:34.118Z,101313.44
2022-11-27T10:22:49.929Z,101309.69
2022-11-27T10:28:20.671Z,101302.56
2022-11-27T10:33:41.422Z,101296.81
2022-11-27T10:38:43.763Z,101288.81
2022-11-27T10:43:47.055Z,101293.28
2022-11-27T10:48:48.742Z,101283.84
2022-11-27T10:53:52.612Z,101276.84
2022-11-27T10:58:59.684Z,101268.69
2022-11-27T11:04:31.298Z,101268.63
2022-11-27T11:09:34.994Z,101260.19
2022-11-27T11:14:36.612Z,101267.88
2022-11-27T11:19:38.980Z,101260.88
2022-11-27T11:24:45.651Z,101255.22
2022-11-27T11:29:49.927Z,101253.19
2022-11-27T11:35:04.540Z,101274.28
2022-11-27T11:40:13.198Z,101273.31
2022-11-27T11:45:18.996Z,101267.25
2022-11-27T11:50:47.608Z,101257.97
2022-11-27T11:56:16.359Z,101261.63
2022-11-27T12:01:45.690Z,101249.44
2022-11-27T12:06:54.727Z,101247.25
2022-11-27T12:11:56.250Z,101243.66
2022-11-27T12:17:15.788Z,101236.63
2022-11-27T12:22:17.568Z,101235.97
2022-11-27T12:27:21.845Z,101233.63
2022-11-27T12:32:35.592Z,101215.16
2022-11-27T12:37:55.149Z,101205.63
2022-11-27T12:43:27.379Z,101198.47
2022-11-27T12:48:34.099Z,101195.81
2022-11-27T12:53:43.933Z,101183.44
2022-11-27T12:58:51.896Z,101183.94
2022-11-27T13:04:22.682Z,101167.00
2022-11-27T13:16:57.084Z,101141.84
2022-11-27T13:22:00.072Z,101136.16
2022-11-27T13:27:13.535Z,101123.06
2022-11-27T13:32:23.525Z,101116.53
2022-11-27T13:37:28.647Z,101104.53
2022-11-27T13:42:31.064Z,101095.28
2022-11-27T13:47:38.942Z,101088.16
2022-11-27T13:52:57.129Z,101086.59
2022-11-27T13:58:01.023Z,101085.81
2022-11-27T14:03:03.318Z,101093.28
2022-11-27T14:08:17.430Z,101091.06
2022-11-27T14:13:21.470Z,101094.44
2022-11-27T14:18:27.505Z,101090.53
2022-11-27T14:23:33.354Z,101084.19
2022-11-27T14:28:36.463Z,101085.56
2022-11-27T14:34:07.431Z,101070.78
2022-11-27T14:39:05.815Z,101065.91
2022-11-27T14:44:14.941Z,101057.16
2022-11-27T14:49:21.902Z,101065.47
2022-11-27T14:54:26.310Z,101066.00
2022-11-27T14:59:27.912Z,101053.03
2022-11-27T15:04:40.937Z,101046.75
2022-11-27T15:09:50.063Z,101045.28
2022-11-27T15:15:05.238Z,101046.34
2022-11-27T15:20:21.524Z,101034.66
2022-11-27T15:25:32.991Z,101038.91
2022-11-27T15:30:44.367Z,101035.09
2022-11-27T15:35:47.828Z,101044.69
2022-11-27T15:40:57.907Z,101046.78
2022-11-27T15:45:59.520Z,101030.75
2022-11-27T15:51:01.080Z,101011.66
2022-11-27T15:56:02.696Z,101011.50
2022-11-27T16:01:05.907Z,101002.44
2022-11-27T16:06:08.595Z,100999.34
2022-11-27T16:11:14.685Z,100986.34
2022-11-27T16:16:16.619Z,100985.81
2022-11-27T16:21:18.366Z,100981.88
2022-11-27T16:26:19.959Z,100967.41
2022-11-27T16:31:22.133Z,100980.72
2022-11-27T16:36:24.070Z,100970.19
2022-11-27T16:41:26.020Z,100975.72
2022-11-27T16:46:30.388Z,100975.16
2022-11-27T16:51:34.224Z,100973.38
2022-11-27T16:56:36.405Z,100977.22
2022-11-27T17:01:41.098Z,100969.66
2022-11-27T17:06:42.990Z,100958.09
2022-11-27T17:11:48.578Z,100948.59
2022-11-27T17:16:50.524Z,100943.41
2022-11-27T17:21:52.520Z,100947.97
2022-11-27T17:26:55.377Z,100926.56
2022-11-27T17:32:04.795Z,100926.81
2022-11-27T17:37:07.524Z,100921.72
2022-11-27T17:42:13.342Z,100908.31
2022-11-27T17:47:16.448Z,100905.34
2022-11-27T17:52:17.980Z,100894.50
2022-11-27T17:57:19.651Z,100893.41
2022-11-27T18:02:21.244Z,100888.31
2022-11-27T18:07:23.114Z,100888.94
2022-11-27T18:12:24.884Z,100878.03
2022-11-27T18:17:28.241Z,100871.41
2022-11-27T18:22:29.986Z,100851.63
2022-11-27T18:27:32.663Z,100848.97
2022-11-27T18:32:36.384Z,100834.44
2022-11-27T18:37:38.479Z,100831.53
2022-11-27T18:42:40.030Z,100826.66
2022-11-27T18:47:41.983Z,100820.63
2022-11-27T18:52:43.531Z,100823.72
2022-11-27T18:57:46.281Z,100825.63
2022-11-27T19:02:48.152Z,100814.78
2022-11-27T19:07:49.891Z,100822.31
2022-11-27T19:12:52.136Z,100817.00
2022-11-27T19:17:53.786Z,100830.50
2022-11-27T19:22:55.319Z,100822.22
2022-11-27T19:27:56.932Z,100814.03
2022-11-27T19:32:58.479Z,100822.53
2022-11-27T19:38:00.696Z,100825.09
2022-11-27T19:43:02.567Z,100815.22
2022-11-27T19:48:04.216Z,100822.00
2022-11-27T19:53:07.203Z,100813.94
2022-11-27T19:58:08.822Z,100809.91
2022-11-27T20:03:12.147Z,100806.81
2022-11-27T20:08:13.739Z,100797.47
2022-11-27T20:13:15.359Z,100788.88
2022-11-27T20:18:17.369Z,100784.59
2022-11-27T20:23:18.967Z,100774.59
2022-11-27T20:28:21.207Z,100770.06
2022-11-27T20:33:23.699Z,100766.50
2022-11-27T20:38:29.345Z,100763.13
2022-11-27T20:43:30.961Z,100768.56
2022-11-27T20:48:32.539Z,100750.69
2022-11-27T20:53:34.493Z,100745.31
2022-11-27T20:58:36.760Z,100742.09
2022-11-27T21:03:39.689Z,100733.78
2022-11-27T21:08:41.702Z,100725.28
2022-11-27T21:13:43.257Z,100738.69
2022-11-27T21:18:44.877Z,100732.72
2022-11-27T21:23:46.692Z,100727.00
2022-11-27T21:28:48.582Z,100722.97
2022-11-27T21:33:52.717Z,100723.25
2022-11-27T21:38:54.959Z,100702.97
2022-11-27T21:43:59.023Z,100708.50
2022-11-27T21:49:02.144Z,100693.50
2022-11-27T21:54:06.483Z,100681.69
2022-11-27T21:59:10.447Z,100681.53
2022-11-27T22:04:12.336Z,100683.84
2022-11-27T22:09:15.985Z,100661.22
2022-11-27T22:14:17.934Z,100664.22
2022-11-27T22:19:19.467Z,100668.84
2022-11-27T22:24:21.027Z,100650.25
2022-11-27T22:29:27.159Z,100656.41
2022-11-27T22:34:28.747Z,100644.31
2022-11-27T22:39:30.344Z,100640.09
2022-11-27T22:44:32.176Z,100643.13
2022-11-27T22:49:33.754Z,100623.38
2022-11-27T22:54:35.423Z,100607.97
2022-11-27T22:59:37.193Z,100605.44
2022-11-27T23:04:39.931Z,100604.56
2022-11-27T23:09:42.333Z,100601.47
2022-11-27T23:14:44.021Z,100599.22
2022-11-27T23:19:45.835Z,100592.78
2022-11-27T23:24:47.410Z,100589.50
2022-11-27T23:29:48.965Z,100583.56
2022-11-27T23:34:50.602Z,100575.31
2022-11-27T23:39:52.147Z,100579.13
2022-11-27T23:44:53.837Z,100581.00
2022-11-27T23:49:55.377Z,100578.88
2022-11-27T23:54:56.986Z,100576.56
2022-11-27T23:59:58.806Z,100581.66
